createdAt,value
2023-05-18T00:02:07.535Z,99341.78
2023-05-18T00:04:34.935Z,99344.28
2023-05-18T00:07:06.845Z,99345.34
2023-05-18T00:09:35.185Z,99346.22
2023-05-18T00:12:02.351Z,99342.47
2023-05-18T00:14:29.429Z,99346.44
2023-05-18T00:16:56.320Z,99340.16
2023-05-18T00:19:24.247Z,99340.81
2023-05-18T00:21:52.561Z,99342.00
2023-05-18T00:24:19.632Z,99340.94
2023-05-18T00:26:47.058Z,99343.75
2023-05-18T00:29:14.097Z,99348.72
2023-05-18T00:31:40.999Z,99350.69
2023-05-18T00:34:12.724Z,99340.63
2023-05-18T00:36:39.781Z,99345.50
2023-05-18T00:39:07.499Z,99348.72
2023-05-18T00:41:34.239Z,99345.59
2023-05-18T00:44:01.484Z,99349.91
2023-05-18T00:46:28.502Z,99350.78
2023-05-18T00:48:57.162Z,99347.22
2023-05-18T00:51:24.238Z,99349.69
2023-05-18T00:53:51.665Z,99349.91
2023-05-18T00:56:18.442Z,99349.91
2023-05-18T00:58:46.062Z,99354.44
2023-05-18T01:01:12.808Z,99361.19
2023-05-18T01:03:39.930Z,99354.78
2023-05-18T01:06:07.009Z,99356.63
2023-05-18T01:08:34.345Z,99357.25
2023-05-18T01:11:31.200Z,99356.53
2023-05-18T01:14:36.592Z,99356.53
2023-05-18T01:17:06.340Z,99359.22
2023-05-18T01:19:51.847Z,99364.84
2023-05-18T01:22:45.276Z,99363.22
2023-05-18T01:25:21.649Z,99367.53
2023-05-18T01:27:49.566Z,99360.81
2023-05-18T01:30:19.458Z,99365.03
2023-05-18T01:32:47.077Z,99367.84
2023-05-18T01:35:14.312Z,99369.66
2023-05-18T01:37:41.094Z,99379.53
2023-05-18T01:40:09.376Z,99373.25
2023-05-18T01:42:39.511Z,99386.66
2023-05-18T01:45:12.215Z,99386.81
2023-05-18T01:47:39.061Z,99376.81
2023-05-18T01:50:11.889Z,99390.00
2023-05-18T01:52:42.004Z,99388.34
2023-05-18T01:55:09.385Z,99391.50
2023-05-18T01:57:36.698Z,99388.03
2023-05-18T02:00:07.836Z,99388.03
2023-05-18T02:02:34.642Z,99398.84
2023-05-18T02:05:02.324Z,99395.69
2023-05-18T02:07:29.036Z,99398.84
2023-05-18T02:09:56.176Z,99397.97
2023-05-18T02:12:22.917Z,99406.28
2023-05-18T02:14:49.937Z,99401.53
2023-05-18T02:17:16.648Z,99407.47
2023-05-18T02:19:43.852Z,99403.47
2023-05-18T02:22:10.686Z,99407.13
2023-05-18T02:24:37.787Z,99406.41
2023-05-18T02:27:05.645Z,99409.00
2023-05-18T02:29:32.689Z,99413.75
2023-05-18T02:31:59.537Z,99414.06
2023-05-18T02:34:27.604Z,99412.97
2023-05-18T02:36:58.018Z,99413.63
2023-05-18T02:39:25.201Z,99420.84
2023-05-18T02:41:51.933Z,99419.78
2023-05-18T02:44:19.031Z,99420.09
2023-05-18T02:46:45.993Z,99413.31
2023-05-18T02:49:13.067Z,99418.72
2023-05-18T02:51:39.782Z,99422.06
2023-05-18T02:54:07.014Z,99423.66
2023-05-18T02:56:33.805Z,99425.16
2023-05-18T02:59:00.929Z,99412.53
2023-05-18T03:01:27.798Z,99415.81
2023-05-18T03:03:57.456Z,99422.16
2023-05-18T03:06:26.570Z,99411.13
2023-05-18T03:08:54.490Z,99419.13
2023-05-18T03:11:22.620Z,99422.47
2023-05-18T03:13:49.779Z,99427.22
2023-05-18T03:16:16.616Z,99427.22
2023-05-18T03:18:43.702Z,99424.41
2023-05-18T03:21:13.614Z,99428.44
2023-05-18T03:23:41.098Z,99424.63
2023-05-18T03:26:11.548Z,99430.69
2023-05-18T03:28:39.030Z,99435.22
2023-05-18T03:31:06.106Z,99437.16
2023-05-18T03:33:33.222Z,99445.25
2023-05-18T03:36:03.743Z,99442.56
2023-05-18T03:38:30.868Z,99439.22
2023-05-18T03:40:57.719Z,99441.56
2023-05-18T03:43:25.974Z,99442.88
2023-05-18T03:45:53.527Z,99444.47
2023-05-18T03:48:21.735Z,99450.66
2023-05-18T03:50:48.911Z,99446.13
2023-05-18T03:53:19.209Z,99454.53
2023-05-18T03:55:46.544Z,99455.50
2023-05-18T03:58:13.746Z,99459.38
2023-05-18T04:00:40.683Z,99461.75
2023-05-18T04:03:07.852Z,99464.78
2023-05-18T04:05:34.651Z,99461.00
2023-05-18T04:08:01.799Z,99460.56
2023-05-18T04:10:28.552Z,99463.72
2023-05-18T04:12:55.849Z,99461.97
2023-05-18T04:15:22.650Z,99464.66
2023-05-18T04:17:51.158Z,99462.19
2023-05-18T04:20:18.607Z,99457.88
2023-05-18T04:22:48.124Z,99469.84
2023-05-18T04:25:15.527Z,99468.75
2023-05-18T04:27:43.454Z,99467.25
2023-05-18T04:30:13.386Z,99470.47
2023-05-18T04:32:43.071Z,99481.16
2023-05-18T04:35:11.752Z,99481.59
2023-05-18T04:37:43.110Z,99478.81
2023-05-18T04:40:17.547Z,99482.81
2023-05-18T04:42:48.425Z,99487.91
2023-05-18T04:45:17.857Z,99492.41
2023-05-18T04:47:46.728Z,99494.16
2023-05-18T04:50:15.301Z,99499.31
2023-05-18T04:52:47.988Z,99497.06
2023-05-18T04:55:23.030Z,99499.53
2023-05-18T04:57:50.602Z,99491.34
2023-05-18T05:00:18.002Z,99488.53
2023-05-18T05:02:45.403Z,99498.59
2023-05-18T05:05:12.432Z,99496.19
2023-05-18T05:07:39.568Z,99499.53
2023-05-18T05:10:07.042Z,99493.59
2023-05-18T05:12:36.603Z,99498.91
2023-05-18T05:15:03.574Z,99499.94
2023-05-18T05:17:30.723Z,99500.19
2023-05-18T05:19:57.692Z,99496.09
2023-05-18T05:22:24.884Z,99498.69
2023-05-18T05:24:51.810Z,99503.41
2023-05-18T05:27:19.891Z,99499.09
2023-05-18T05:29:46.948Z,99499.00
2023-05-18T05:32:14.085Z,99490.44
2023-05-18T05:34:41.064Z,99496.09
2023-05-18T05:37:08.093Z,99497.78
2023-05-18T05:39:34.868Z,99501.69
2023-05-18T05:42:02.042Z,99496.41
2023-05-18T05:44:28.802Z,99495.44
2023-05-18T05:46:56.125Z,99506.00
2023-05-18T05:49:22.911Z,99503.75
2023-05-18T05:51:49.986Z,99501.59
2023-05-18T05:54:16.708Z,99499.66
2023-05-18T05:56:43.799Z,99509.78
2023-05-18T05:59:10.769Z,99508.03
2023-05-18T06:01:37.873Z,99513.53
2023-05-18T06:04:06.573Z,99511.63
2023-05-18T06:06:33.659Z,99509.69
2023-05-18T06:09:00.955Z,99511.41
2023-05-18T06:11:28.025Z,99512.63
2023-05-18T06:13:54.724Z,99513.88
2023-05-18T06:16:21.823Z,99515.88
2023-05-18T06:18:49.164Z,99519.19
2023-05-18T06:21:16.249Z,99519.19
2023-05-18T06:23:44.549Z,99518.78
2023-05-18T06:26:11.621Z,99514.03
2023-05-18T06:28:38.411Z,99514.44
2023-05-18T06:31:05.664Z,99512.28
2023-05-18T06:33:32.498Z,99516.53
2023-05-18T06:35:59.530Z,99517.81
2023-05-18T06:38:26.444Z,99516.88
2023-05-18T06:40:53.501Z,99521.63
2023-05-18T06:43:20.241Z,99522.91
2023-05-18T06:45:47.535Z,99525.09
2023-05-18T06:48:14.322Z,99524.69
2023-05-18T06:50:41.366Z,99530.38
2023-05-18T06:53:08.368Z,99525.88
2023-05-18T06:55:35.534Z,99531.19
2023-05-18T06:58:02.730Z,99530.72
2023-05-18T07:00:29.811Z,99531.50
2023-05-18T07:02:56.631Z,99535.84
2023-05-18T07:05:24.414Z,99534.63
2023-05-18T07:07:51.222Z,99539.59
2023-05-18T07:10:18.509Z,99533.22
2023-05-18T07:12:45.409Z,99538.19
2023-05-18T07:15:12.433Z,99533.09
2023-05-18T07:17:39.360Z,99540.91
2023-05-18T07:20:07.422Z,99542.38
2023-05-18T07:22:34.765Z,99546.41
2023-05-18T07:25:01.863Z,99546.94
2023-05-18T07:27:29.084Z,99555.78
2023-05-18T07:29:56.176Z,99548.44
2023-05-18T07:32:23.318Z,99555.22
2023-05-18T07:34:50.965Z,99560.19
2023-05-18T07:37:17.736Z,99552.72
2023-05-18T07:39:44.846Z,99557.59
2023-05-18T07:42:11.737Z,99549.66
2023-05-18T07:44:38.818Z,99553.13
2023-05-18T07:47:06.029Z,99556.00
2023-05-18T07:49:33.127Z,99551.47
2023-05-18T07:52:00.581Z,99546.03
2023-05-18T07:54:27.647Z,99552.47
2023-05-18T07:56:54.378Z,99543.38
2023-05-18T07:59:21.478Z,99549.19
2023-05-18T08:01:49.260Z,99547.75
2023-05-18T08:04:16.590Z,99550.63
2023-05-18T08:06:43.449Z,99549.53
2023-05-18T08:09:10.514Z,99560.63
2023-05-18T08:11:37.341Z,99559.66
2023-05-18T08:14:04.386Z,99556.25
2023-05-18T08:16:34.720Z,99549.34
2023-05-18T08:19:02.146Z,99560.72
2023-05-18T08:21:29.549Z,99562.81
2023-05-18T08:23:56.720Z,99550.78
2023-05-18T08:26:24.555Z,99564.34
2023-05-18T08:28:51.643Z,99562.13
2023-05-18T08:31:18.464Z,99562.63
2023-05-18T08:33:45.734Z,99564.47
2023-05-18T08:36:12.642Z,99564.66
2023-05-18T08:38:39.890Z,99566.41
2023-05-18T08:41:14.568Z,99565.28
2023-05-18T08:43:42.813Z,99566.78
2023-05-18T08:46:25.172Z,99570.47
2023-05-18T08:48:53.346Z,99561.56
2023-05-18T08:51:20.848Z,99562.09
2023-05-18T08:53:54.342Z,99565.41
2023-05-18T08:56:24.601Z,99564.81
2023-05-18T08:58:55.763Z,99573.19
2023-05-18T09:01:28.289Z,99577.25
2023-05-18T09:03:57.147Z,99572.06
2023-05-18T09:06:28.538Z,99572.69
2023-05-18T09:08:57.742Z,99573.91
2023-05-18T09:11:25.862Z,99575.41
2023-05-18T09:13:52.923Z,99576.50
2023-05-18T09:16:19.744Z,99582.28
2023-05-18T09:18:47.010Z,99581.44
2023-05-18T09:21:13.751Z,99576.88
2023-05-18T09:23:43.814Z,99588.56
2023-05-18T09:26:11.430Z,99586.34
2023-05-18T09:28:42.379Z,99584.53
2023-05-18T09:31:12.632Z,99587.97
2023-05-18T09:33:40.066Z,99585.13
2023-05-18T09:36:07.857Z,99577.94
2023-05-18T09:38:38.733Z,99583.75
2023-05-18T09:41:10.082Z,99582.84
2023-05-18T09:43:37.196Z,99591.88
2023-05-18T09:46:07.936Z,99586.44
2023-05-18T09:48:42.128Z,99582.00
2023-05-18T09:51:11.059Z,99579.91
2023-05-18T09:53:38.127Z,99572.03
2023-05-18T09:56:06.768Z,99579.41
2023-05-18T09:58:34.293Z,99577.06
2023-05-18T10:01:01.638Z,99587.28
2023-05-18T10:03:32.684Z,99580.78
2023-05-18T10:06:04.440Z,99578.94
2023-05-18T10:08:32.174Z,99580.91
2023-05-18T10:10:58.965Z,99576.44
2023-05-18T10:13:27.924Z,99580.50
2023-05-18T10:15:59.411Z,99581.28
2023-05-18T10:18:30.514Z,99588.88
2023-05-18T10:21:00.086Z,99585.66
2023-05-18T10:23:31.407Z,99578.78
2023-05-18T10:25:58.457Z,99578.91
2023-05-18T10:28:44.904Z,99580.47
2023-05-18T10:31:11.890Z,99570.22
2023-05-18T10:33:39.055Z,99573.06
2023-05-18T10:36:06.447Z,99564.78
2023-05-18T10:38:33.806Z,99574.81
2023-05-18T10:41:00.727Z,99571.34
2023-05-18T10:43:28.159Z,99575.75
2023-05-18T10:45:59.028Z,99570.44
2023-05-18T10:48:26.689Z,99573.28
2023-05-18T10:50:54.355Z,99575.03
2023-05-18T10:53:23.043Z,99571.91
2023-05-18T10:55:53.110Z,99571.91
2023-05-18T10:58:21.523Z,99573.03
2023-05-18T11:00:51.423Z,99581.78
2023-05-18T11:03:19.663Z,99575.97
2023-05-18T11:06:10.682Z,99573.25
2023-05-18T11:08:47.824Z,99580.28
2023-05-18T11:11:16.565Z,99575.31
2023-05-18T11:13:48.503Z,99572.59
2023-05-18T11:16:16.066Z,99581.94
2023-05-18T11:18:46.844Z,99578.63
2023-05-18T11:21:20.655Z,99571.94
2023-05-18T11:24:22.959Z,99582.22
2023-05-18T11:26:54.218Z,99579.09
2023-05-18T11:29:40.878Z,99580.81
2023-05-18T11:32:31.310Z,99589.16
2023-05-18T11:34:58.800Z,99579.19
2023-05-18T11:37:38.175Z,99580.50
2023-05-18T11:40:09.319Z,99596.81
2023-05-18T11:42:37.837Z,99602.97
2023-05-18T11:45:11.429Z,99598.81
2023-05-18T11:47:40.653Z,99591.88
2023-05-18T11:50:09.206Z,99597.66
2023-05-18T11:52:50.776Z,99606.56
2023-05-18T11:55:19.165Z,99599.28
2023-05-18T11:57:48.816Z,99604.13
2023-05-18T12:00:17.085Z,99600.13
2023-05-18T12:02:45.794Z,99607.63
2023-05-18T12:05:13.414Z,99603.19
2023-05-18T12:07:40.575Z,99606.78
2023-05-18T12:10:08.617Z,99611.47
2023-05-18T12:12:35.780Z,99606.16
2023-05-18T12:15:03.939Z,99611.19
2023-05-18T12:17:49.624Z,99614.66
2023-05-18T12:20:18.116Z,99612.47
2023-05-18T12:22:46.297Z,99608.75
2023-05-18T12:25:13.382Z,99614.78
2023-05-18T12:27:44.476Z,99617.09
2023-05-18T12:30:17.733Z,99610.69
2023-05-18T12:32:46.374Z,99609.06
2023-05-18T12:35:13.556Z,99622.94
2023-05-18T12:37:46.702Z,99619.22
2023-05-18T12:40:14.901Z,99614.78
2023-05-18T12:42:52.949Z,99615.66
2023-05-18T12:45:22.756Z,99616.50
2023-05-18T12:47:54.245Z,99626.47
2023-05-18T12:50:26.702Z,99615.44
2023-05-18T12:52:55.010Z,99621.63
2023-05-18T12:55:22.423Z,99621.75
2023-05-18T12:58:20.945Z,99610.88
2023-05-18T13:00:48.783Z,99607.28
2023-05-18T13:03:17.099Z,99609.16
2023-05-18T13:05:46.127Z,99619.03
2023-05-18T13:08:21.702Z,99614.97
2023-05-18T13:10:57.998Z,99613.13
2023-05-18T13:13:28.626Z,99617.69
2023-05-18T13:15:55.730Z,99618.47
2023-05-18T13:18:22.511Z,99619.19
2023-05-18T13:20:51.664Z,99605.34
2023-05-18T13:23:19.863Z,99606.38
2023-05-18T13:25:47.280Z,99599.66
2023-05-18T13:28:15.050Z,99600.66
2023-05-18T13:30:42.430Z,99599.19
2023-05-18T13:33:09.348Z,99595.38
2023-05-18T13:35:37.174Z,99593.63
2023-05-18T13:38:03.949Z,99589.31
2023-05-18T13:40:31.116Z,99587.59
2023-05-18T13:42:57.876Z,99589.31
2023-05-18T13:45:25.003Z,99593.38
2023-05-18T13:47:53.484Z,99591.63
2023-05-18T13:50:21.086Z,99590.91
2023-05-18T13:52:47.990Z,99585.34
2023-05-18T13:55:15.289Z,99589.94
2023-05-18T13:57:42.110Z,99583.47
2023-05-18T14:00:17.049Z,99581.47
2023-05-18T14:02:44.386Z,99579.44
2023-05-18T14:05:12.527Z,99581.91
2023-05-18T14:07:42.708Z,99576.81
2023-05-18T14:10:10.537Z,99587.22
2023-05-18T14:12:37.482Z,99575.88
2023-05-18T14:15:05.142Z,99576.97
2023-05-18T14:17:32.795Z,99584.03
2023-05-18T14:20:00.115Z,99586.19
2023-05-18T14:22:27.494Z,99580.56
2023-05-18T14:24:54.674Z,99581.78
2023-05-18T14:27:21.509Z,99574.22
2023-05-18T14:29:49.098Z,99578.75
2023-05-18T14:32:16.186Z,99575.06
2023-05-18T14:34:43.321Z,99574.69
2023-05-18T14:37:10.049Z,99581.56
2023-05-18T14:39:37.910Z,99578.25
2023-05-18T14:42:06.058Z,99577.00
2023-05-18T14:44:33.214Z,99577.66
2023-05-18T14:47:00.011Z,99576.13
2023-05-18T14:49:27.252Z,99578.00
2023-05-18T14:51:54.009Z,99577.19
2023-05-18T14:54:22.239Z,99585.94
2023-05-18T14:56:49.067Z,99578.63
2023-05-18T14:59:16.361Z,99581.22
2023-05-18T15:01:43.143Z,99582.25
2023-05-18T15:04:10.298Z,99580.75
2023-05-18T15:06:37.644Z,99580.75
2023-05-18T15:09:06.361Z,99576.94
2023-05-18T15:11:35.921Z,99584.97
2023-05-18T15:14:08.753Z,99591.50
2023-05-18T15:16:47.702Z,99582.97
2023-05-18T15:19:14.836Z,99589.25
2023-05-18T15:21:48.840Z,99594.09
2023-05-18T15:24:34.129Z,99587.53
2023-05-18T15:27:03.066Z,99587.53
2023-05-18T15:29:29.917Z,99591.38
2023-05-18T15:31:57.064Z,99595.56
2023-05-18T15:34:33.262Z,99594.31
2023-05-18T15:37:01.153Z,99589.59
2023-05-18T15:39:27.953Z,99594.56
2023-05-18T15:42:13.346Z,99592.69
2023-05-18T15:44:40.367Z,99594.34
2023-05-18T15:47:22.520Z,99593.63
2023-05-18T15:49:49.607Z,99593.63
2023-05-18T15:52:19.317Z,99591.16
2023-05-18T15:54:46.336Z,99594.41
2023-05-18T15:57:18.186Z,99598.59
2023-05-18T15:59:45.294Z,99595.75
2023-05-18T16:02:12.019Z,99594.91
2023-05-18T16:04:39.118Z,99607.84
2023-05-18T16:07:05.935Z,99602.03
2023-05-18T16:09:33.009Z,99612.56
2023-05-18T16:11:59.740Z,99607.16
2023-05-18T16:14:26.796Z,99616.34
2023-05-18T16:16:53.611Z,99623.13
2023-05-18T16:19:20.761Z,99619.06
2023-05-18T16:21:47.761Z,99620.75
2023-05-18T16:24:14.815Z,99628.44
2023-05-18T16:26:41.550Z,99628.97
2023-05-18T16:29:09.046Z,99627.84
2023-05-18T16:31:37.151Z,99632.28
2023-05-18T16:34:04.967Z,99635.88
2023-05-18T16:36:31.938Z,99629.84
2023-05-18T16:38:59.240Z,99627.13
2023-05-18T16:41:26.661Z,99635.94
2023-05-18T16:43:53.690Z,99628.13
2023-05-18T16:46:20.450Z,99625.53
2023-05-18T16:48:47.515Z,99636.56
2023-05-18T16:51:14.550Z,99635.94
2023-05-18T16:53:42.687Z,99637.81
2023-05-18T16:56:09.480Z,99636.41
2023-05-18T16:58:36.670Z,99625.78
2023-05-18T17:01:09.820Z,99627.41
2023-05-18T17:03:43.124Z,99623.72
2023-05-18T17:06:09.929Z,99634.72
2023-05-18T17:08:36.962Z,99632.13
2023-05-18T17:11:03.677Z,99636.81
2023-05-18T17:13:30.702Z,99629.88
2023-05-18T17:15:57.491Z,99637.53
2023-05-18T17:18:24.604Z,99627.41
2023-05-18T17:20:51.308Z,99631.03
2023-05-18T17:23:18.886Z,99627.41
2023-05-18T17:25:46.325Z,99638.28
2023-05-18T17:28:13.925Z,99629.75
2023-05-18T17:30:40.816Z,99635.72
2023-05-18T17:33:07.965Z,99632.38
2023-05-18T17:35:34.839Z,99634.44
2023-05-18T17:38:01.925Z,99631.25
2023-05-18T17:40:28.764Z,99623.75
2023-05-18T17:42:55.888Z,99628.91
2023-05-18T17:45:22.676Z,99625.81
2023-05-18T17:47:49.817Z,99629.41
2023-05-18T17:50:16.925Z,99631.53
2023-05-18T17:52:43.969Z,99636.56
2023-05-18T17:55:10.832Z,99633.34
2023-05-18T17:57:44.977Z,99641.00
2023-05-18T18:00:13.604Z,99641.34
2023-05-18T18:02:41.420Z,99638.75
2023-05-18T18:05:08.859Z,99643.22
2023-05-18T18:07:36.169Z,99635.91
2023-05-18T18:10:03.085Z,99631.75
2023-05-18T18:12:30.481Z,99631.88
2023-05-18T18:14:57.402Z,99634.94
2023-05-18T18:17:24.977Z,99634.06
2023-05-18T18:19:51.789Z,99641.34
2023-05-18T18:22:19.057Z,99628.78
2023-05-18T18:24:45.950Z,99636.16
2023-05-18T18:27:13.065Z,99633.22
2023-05-18T18:29:39.858Z,99644.44
2023-05-18T18:32:08.438Z,99643.94
2023-05-18T18:34:35.540Z,99644.50
2023-05-18T18:37:02.634Z,99656.25
2023-05-18T18:39:30.777Z,99656.47
2023-05-18T18:41:58.475Z,99657.22
2023-05-18T18:44:25.291Z,99656.72
2023-05-18T18:46:52.600Z,99654.34
2023-05-18T18:49:19.421Z,99658.06
2023-05-18T18:51:48.120Z,99663.72
2023-05-18T18:54:15.169Z,99662.06
2023-05-18T18:56:44.024Z,99659.56
2023-05-18T18:59:10.835Z,99663.50
2023-05-18T19:01:38.545Z,99662.78
2023-05-18T19:04:05.498Z,99658.66
2023-05-18T19:06:33.422Z,99661.38
2023-05-18T19:09:00.841Z,99674.59
2023-05-18T19:11:28.055Z,99665.09
2023-05-18T19:13:56.466Z,99666.19
2023-05-18T19:16:24.697Z,99670.84
2023-05-18T19:18:52.272Z,99669.84
2023-05-18T19:21:19.951Z,99669.81
2023-05-18T19:23:47.219Z,99665.78
2023-05-18T19:26:14.639Z,99674.34
2023-05-18T19:28:42.236Z,99669.41
2023-05-18T19:31:10.324Z,99674.31
2023-05-18T19:33:37.431Z,99667.63
2023-05-18T19:36:05.113Z,99663.41
2023-05-18T19:38:32.279Z,99670.78
2023-05-18T19:40:59.716Z,99670.06
2023-05-18T19:43:26.769Z,99675.69
2023-05-18T19:45:54.236Z,99671.38
2023-05-18T19:48:21.122Z,99675.19
2023-05-18T19:50:48.330Z,99677.47
2023-05-18T19:53:15.337Z,99681.69
2023-05-18T19:55:42.728Z,99681.41
2023-05-18T19:58:09.618Z,99683.88
2023-05-18T20:00:38.055Z,99676.53
2023-05-18T20:03:05.936Z,99682.16
2023-05-18T20:05:33.660Z,99679.66
2023-05-18T20:08:04.944Z,99683.22
2023-05-18T20:10:32.866Z,99682.72
2023-05-18T20:13:00.354Z,99686.53
2023-05-18T20:15:29.814Z,99693.44
2023-05-18T20:17:57.344Z,99692.81
2023-05-18T20:20:30.856Z,99691.06
2023-05-18T20:22:58.343Z,99693.78
2023-05-18T20:25:26.852Z,99690.53
2023-05-18T20:27:56.765Z,99685.13
2023-05-18T20:30:26.162Z,99687.94
2023-05-18T20:32:53.487Z,99685.34
2023-05-18T20:35:21.253Z,99681.91
2023-05-18T20:37:48.491Z,99684.59
2023-05-18T20:40:15.973Z,99695.44
2023-05-18T20:42:42.949Z,99689.16
2023-05-18T20:45:10.574Z,99686.91
2023-05-18T20:47:37.716Z,99693.84
2023-05-18T20:50:05.575Z,99691.44
2023-05-18T20:52:32.756Z,99688.00
2023-05-18T20:55:00.138Z,99685.94
2023-05-18T20:57:28.295Z,99679.66
2023-05-18T20:59:55.615Z,99688.75
2023-05-18T21:02:22.395Z,99693.31
2023-05-18T21:04:49.777Z,99692.88
2023-05-18T21:07:18.038Z,99689.41
2023-05-18T21:09:45.166Z,99692.00
2023-05-18T21:12:11.898Z,99693.75
2023-05-18T21:14:39.053Z,99679.69
2023-05-18T21:17:06.311Z,99687.59
2023-05-18T21:19:33.336Z,99691.38
2023-05-18T21:22:00.165Z,99690.72
2023-05-18T21:24:27.323Z,99675.56
2023-05-18T21:26:54.158Z,99682.06
2023-05-18T21:29:21.220Z,99687.91
2023-05-18T21:31:48.856Z,99677.41
2023-05-18T21:34:16.409Z,99681.22
2023-05-18T21:36:43.178Z,99677.75
2023-05-18T21:39:11.126Z,99688.34
2023-05-18T21:41:40.377Z,99685.00
2023-05-18T21:44:07.543Z,99687.50
2023-05-18T21:46:34.671Z,99694.22
2023-05-18T21:49:02.434Z,99693.56
2023-05-18T21:51:31.265Z,99687.94
2023-05-18T21:53:58.993Z,99695.09
2023-05-18T21:56:26.672Z,99687.06
2023-05-18T21:58:54.098Z,99687.19
2023-05-18T22:01:21.638Z,99678.31
2023-05-18T22:03:48.896Z,99676.47
2023-05-18T22:06:15.970Z,99680.56
2023-05-18T22:08:43.116Z,99681.13
2023-05-18T22:11:10.116Z,99680.91
2023-05-18T22:13:37.223Z,99678.81
2023-05-18T22:16:04.511Z,99676.13
2023-05-18T22:18:31.688Z,99676.13
2023-05-18T22:21:01.330Z,99673.41
2023-05-18T22:23:28.424Z,99669.00
2023-05-18T22:25:55.239Z,99665.88
2023-05-18T22:28:22.299Z,99678.94
2023-05-18T22:30:49.720Z,99678.28
2023-05-18T22:33:17.014Z,99676.22
2023-05-18T22:35:44.451Z,99673.63
2023-05-18T22:38:11.588Z,99672.44
2023-05-18T22:40:38.426Z,99677.00
2023-05-18T22:43:05.720Z,99671.81
2023-05-18T22:45:33.155Z,99670.59
2023-05-18T22:48:00.898Z,99668.25
2023-05-18T22:50:28.092Z,99665.09
2023-05-18T22:52:55.172Z,99665.34
2023-05-18T22:55:22.129Z,99668.78
2023-05-18T22:57:49.173Z,99671.28
2023-05-18T23:00:16.558Z,99666.72
2023-05-18T23:02:43.751Z,99666.81
2023-05-18T23:05:10.622Z,99666.06
2023-05-18T23:07:37.916Z,99672.78
2023-05-18T23:10:05.641Z,99675.16
2023-05-18T23:12:33.186Z,99678.97
2023-05-18T23:15:03.578Z,99677.31
2023-05-18T23:17:33.892Z,99676.47
2023-05-18T23:20:06.749Z,99675.50
2023-05-18T23:22:34.905Z,99681.78
2023-05-18T23:25:04.346Z,99682.28
2023-05-18T23:27:31.432Z,99674.75
2023-05-18T23:29:58.552Z,99677.25
2023-05-18T23:32:26.256Z,99672.38
2023-05-18T23:34:53.740Z,99669.03
2023-05-18T23:37:21.068Z,99675.59
2023-05-18T23:39:48.222Z,99680.69
2023-05-18T23:42:14.986Z,99665.44
2023-05-18T23:44:42.329Z,99669.44
2023-05-18T23:47:09.492Z,99663.94
2023-05-18T23:49:36.771Z,99666.31
2023-05-18T23:52:03.970Z,99660.38
2023-05-18T23:54:31.288Z,99659.38
2023-05-18T23:56:59.618Z,99656.13
2023-05-18T23:59:27.312Z,99655.06
